Time,TemperatureF,DewpointF,PressureIn,WindDirection,WindDirectionDegrees,WindSpeedMPH,WindSpeedGustMPH,Humidity,HourlyPrecipIn,Conditions,Clouds,dailyrainin,SoftwareType,DateUTC
2013-07-10 00:01:00,65.2,63.1,30.09,East,79,0.0,0.0,93,0.00,OVC,,0.00,WeatherDisplay:10.37,2013-07-10 04:01:00,
2013-07-10 00:02:00,65.3,63.2,30.09,East,79,0.0,0.0,93,0.00,OVC,,0.00,WeatherDisplay:10.37,2013-07-10 04:02:00,
2013-07-10 00:07:00,65.4,63.3,30.09,East,79,0.0,0.0,93,0.00,OVC,,0.00,WeatherDisplay:10.37,2013-07-10 04:07:00,
2013-07-10 00:12:00,65.3,63.2,30.09,East,79,0.0,0.0,93,0.00,OVC,,0.00,WeatherDisplay:10.37,2013-07-10 04:12:00,
2013-07-10 00:17:00,64.9,62.8,30.09,East,79,0.0,0.0,93,0.00,OVC,,0.00,WeatherDisplay:10.37,2013-07-10 04:17:00,
2013-07-10 00:22:00,65.0,62.9,30.09,East,79,0.0,0.0,93,0.00,OVC,,0.00,WeatherDisplay:10.37,2013-07-10 04:22:00,
2013-07-10 00:27:00,64.7,62.6,30.09,East,79,0.0,0.0,93,0.00,OVC,,0.00,WeatherDisplay:10.37,2013-07-10 04:27:00,
2013-07-10 00:32:00,65.2,63.1,30.09,East,79,0.0,0.0,93,0.00,OVC,,0.00,WeatherDisplay:10.37,2013-07-10 04:32:00,
2013-07-10 00:37:00,64.9,62.8,30.09,East,79,0.0,0.0,93,0.00,OVC,,0.00,WeatherDisplay:10.37,2013-07-10 04:37:00,
2013-07-10 00:42:00,64.8,62.7,30.09,East,79,0.0,0.0,93,0.00,OVC,,0.00,WeatherDisplay:10.37,2013-07-10 04:42:00,
2013-07-10 00:47:00,64.6,62.5,30.09,East,79,0.0,0.0,93,0.00,OVC,,0.00,WeatherDisplay:10.37,2013-07-10 04:47:00,
2013-07-10 00:52:00,65.1,63.0,30.09,East,79,0.0,0.0,93,0.00,OVC,,0.00,WeatherDisplay:10.37,2013-07-10 04:52:00,
2013-07-10 00:57:00,65.2,63.1,30.09,East,79,0.0,0.0,93,0.00,OVC,,0.00,WeatherDisplay:10.37,2013-07-10 04:57:00,
2013-07-10 01:02:00,65.4,63.3,30.07,East,79,0.0,0.0,93,0.00,OVC,,0.00,WeatherDisplay:10.37,2013-07-10 05:02:00,
2013-07-10 01:07:00,65.0,62.9,30.07,East,79,0.0,0.0,93,0.00,OVC,,0.00,WeatherDisplay:10.37,2013-07-10 05:07:00,
2013-07-10 01:12:00,64.6,62.5,30.07,East,79,0.0,0.0,93,0.00,OVC,,0.00,WeatherDisplay:10.37,2013-07-10 05:12:00,
2013-07-10 01:17:00,64.1,62.0,30.07,East,79,0.0,0.0,93,0.00,OVC,,0.00,WeatherDisplay:10.37,2013-07-10 05:17:00,
2013-07-10 01:22:00,64.1,62.0,30.07,East,79,0.0,0.0,93,0.00,OVC,,0.00,WeatherDisplay:10.37,2013-07-10 05:22:00,
2013-07-10 01:27:00,64.1,62.0,30.07,East,79,0.0,0.0,93,0.00,OVC,,0.00,WeatherDisplay:10.37,2013-07-10 05:27:00,
2013-07-10 01:32:00,63.9,61.8,30.07,East,79,0.0,0.0,93,0.00,OVC,,0.00,WeatherDisplay:10.37,2013-07-10 05:32:00,
2013-07-10 01:37:00,64.1,62.0,30.07,East,79,0.0,0.0,93,0.00,OVC,,0.00,WeatherDisplay:10.37,2013-07-10 05:37:00,
2013-07-10 01:42:00,63.9,61.8,30.07,East,79,0.0,0.0,93,0.00,OVC,,0.00,WeatherDisplay:10.37,2013-07-10 05:42:00,
2013-07-10 01:47:00,63.9,61.8,30.07,East,79,0.0,0.0,93,0.00,OVC,,0.00,WeatherDisplay:10.37,2013-07-10 05:47:00,
2013-07-10 01:52:00,64.1,62.0,30.07,East,79,0.0,0.0,93,0.00,OVC,,0.00,WeatherDisplay:10.37,2013-07-10 05:52:00,
2013-07-10 01:57:00,64.1,62.0,30.07,East,79,0.0,0.0,93,0.00,OVC,,0.00,WeatherDisplay:10.37,2013-07-10 05:57:00,
2013-07-10 02:02:00,64.0,60.7,30.06,East,79,0.0,0.0,89,0.00,OVC,,0.00,WeatherDisplay:10.37,2013-07-10 06:02:00,
2013-07-10 02:07:00,63.5,60.2,30.06,East,79,0.0,0.0,89,0.00,OVC,,0.00,WeatherDisplay:10.37,2013-07-10 06:07:00,
2013-07-10 02:12:00,63.5,60.2,30.06,East,79,0.0,0.0,89,0.00,OVC,,0.00,WeatherDisplay:10.37,2013-07-10 06:12:00,
2013-07-10 02:17:00,64.3,61.0,30.06,East,79,0.0,0.0,89,0.00,OVC,,0.00,WeatherDisplay:10.37,2013-07-10 06:17:00,
2013-07-10 02:22:00,64.5,61.2,30.06,East,79,0.0,0.0,89,0.00,OVC,,0.00,WeatherDisplay:10.37,2013-07-10 06:22:00,
2013-07-10 02:27:00,63.4,60.1,30.06,East,79,0.0,0.0,89,0.00,OVC,,0.00,WeatherDisplay:10.37,2013-07-10 06:27:00,
2013-07-10 02:32:00,63.7,60.4,30.06,East,79,0.0,0.0,89,0.00,OVC,,0.00,WeatherDisplay:10.37,2013-07-10 06:32:00,
2013-07-10 02:37:00,63.7,60.4,30.06,East,79,0.0,0.0,89,0.00,OVC,,0.00,WeatherDisplay:10.37,2013-07-10 06:37:00,
2013-07-10 02:42:00,63.7,61.6,30.05,East,79,0.0,0.0,93,0.00,OVC,,0.00,WeatherDisplay:10.37,2013-07-10 06:42:00,
2013-07-10 02:47:00,63.6,61.5,30.05,East,79,0.0,0.0,93,0.00,OVC,,0.00,WeatherDisplay:10.37,2013-07-10 06:47:00,
2013-07-10 02:53:00,63.4,61.3,30.05,East,79,0.0,0.0,93,0.00,OVC,,0.00,WeatherDisplay:10.37,2013-07-10 06:53:00,
2013-07-10 02:58:00,63.9,61.8,30.05,East,79,0.0,0.0,93,0.00,OVC,,0.00,WeatherDisplay:10.37,2013-07-10 06:58:00,
2013-07-10 03:03:00,64.1,62.0,30.05,East,79,0.0,0.0,93,0.00,OVC,,0.00,WeatherDisplay:10.37,2013-07-10 07:03:00,
2013-07-10 03:08:00,63.7,61.6,30.05,East,79,0.0,0.0,93,0.00,OVC,,0.00,WeatherDisplay:10.37,2013-07-10 07:08:00,
2013-07-10 03:13:00,63.7,61.6,30.05,East,79,0.0,0.0,93,0.00,OVC,,0.00,WeatherDisplay:10.37,2013-07-10 07:13:00,
2013-07-10 03:18:00,63.9,61.8,30.05,East,79,0.0,0.0,93,0.00,OVC,,0.00,WeatherDisplay:10.37,2013-07-10 07:18:00,
2013-07-10 03:23:00,64.1,62.0,30.05,East,79,0.0,0.0,93,0.00,OVC,,0.00,WeatherDisplay:10.37,2013-07-10 07:23:00,
2013-07-10 03:28:00,64.8,62.7,30.05,East,79,0.0,0.0,93,0.00,OVC,,0.00,WeatherDisplay:10.37,2013-07-10 07:28:00,
2013-07-10 03:33:00,64.8,62.7,30.05,East,79,0.0,0.0,93,0.00,OVC,,0.00,WeatherDisplay:10.37,2013-07-10 07:33:00,
2013-07-10 03:38:00,64.6,62.5,30.05,East,79,0.0,0.0,93,0.00,OVC,,0.00,WeatherDisplay:10.37,2013-07-10 07:38:00,
2013-07-10 03:43:00,64.5,62.4,30.03,East,79,0.0,0.0,93,0.00,OVC,,0.00,WeatherDisplay:10.37,2013-07-10 07:43:00,
2013-07-10 03:48:00,63.9,61.8,30.03,East,79,0.0,0.0,93,0.00,OVC,,0.00,WeatherDisplay:10.37,2013-07-10 07:48:00,
2013-07-10 03:53:00,63.8,61.7,30.03,East,79,0.0,0.0,93,0.00,OVC,,0.00,WeatherDisplay:10.37,2013-07-10 07:53:00,
2013-07-10 03:58:00,64.1,62.0,30.03,East,79,0.0,0.0,93,0.00,OVC,,0.00,WeatherDisplay:10.37,2013-07-10 07:58:00,
2013-07-10 04:03:00,64.3,63.1,30.03,East,79,0.0,0.0,96,0.00,OVC,,0.00,WeatherDisplay:10.37,2013-07-10 08:03:00,
2013-07-10 04:08:00,63.9,62.7,30.03,East,79,0.0,0.0,96,0.00,OVC,,0.00,WeatherDisplay:10.37,2013-07-10 08:08:00,
2013-07-10 04:13:00,63.6,62.4,30.03,East,79,0.0,0.0,96,0.00,OVC,,0.00,WeatherDisplay:10.37,2013-07-10 08:13:00,
2013-07-10 04:18:00,63.4,62.2,30.03,East,79,0.0,0.0,96,0.00,OVC,,0.00,WeatherDisplay:10.37,2013-07-10 08:18:00,
2013-07-10 04:23:00,63.1,61.9,30.03,East,79,0.0,0.0,96,0.00,OVC,,0.00,WeatherDisplay:10.37,2013-07-10 08:23:00,
2013-07-10 04:28:00,63.0,61.8,30.03,East,79,0.0,0.0,96,0.00,OVC,,0.00,WeatherDisplay:10.37,2013-07-10 08:28:00,
2013-07-10 04:33:00,63.1,61.9,30.03,East,79,0.0,0.0,96,0.00,OVC,,0.00,WeatherDisplay:10.37,2013-07-10 08:33:00,
2013-07-10 04:38:00,63.1,61.9,30.03,East,79,0.0,0.0,96,0.00,OVC,,0.00,WeatherDisplay:10.37,2013-07-10 08:38:00,
2013-07-10 04:43:00,62.9,61.7,30.03,East,79,0.0,0.0,96,0.00,OVC,,0.00,WeatherDisplay:10.37,2013-07-10 08:43:00,
2013-07-10 04:48:00,63.2,62.0,30.03,East,79,0.0,0.0,96,0.00,OVC,,0.00,WeatherDisplay:10.37,2013-07-10 08:48:00,
2013-07-10 04:53:00,64.1,62.9,30.03,East,79,0.0,0.0,96,0.00,OVC,,0.00,WeatherDisplay:10.37,2013-07-10 08:53:00,
2013-07-10 04:58:00,63.5,62.3,30.03,East,79,0.0,0.0,96,0.00,OVC,,0.00,WeatherDisplay:10.37,2013-07-10 08:58:00,
2013-07-10 05:03:00,63.4,62.2,30.02,East,79,0.0,0.0,96,0.00,OVC,,0.00,WeatherDisplay:10.37,2013-07-10 09:03:00,
2013-07-10 05:08:00,63.6,62.4,30.02,East,79,0.0,0.0,96,0.00,OVC,,0.00,WeatherDisplay:10.37,2013-07-10 09:08:00,
2013-07-10 05:13:00,63.3,62.1,30.02,East,79,0.0,0.0,96,0.00,OVC,,0.00,WeatherDisplay:10.37,2013-07-10 09:13:00,
2013-07-10 05:18:00,63.3,62.1,30.02,East,79,0.0,0.0,96,0.00,OVC,,0.00,WeatherDisplay:10.37,2013-07-10 09:18:00,
2013-07-10 05:23:00,63.4,62.2,30.02,East,79,0.0,0.0,96,0.00,OVC,,0.00,WeatherDisplay:10.37,2013-07-10 09:23:00,
2013-07-10 05:28:00,63.2,62.0,30.02,East,79,0.0,0.0,96,0.00,OVC,,0.00,WeatherDisplay:10.37,2013-07-10 09:28:00,
2013-07-10 05:33:00,63.0,61.8,30.02,East,79,0.0,0.0,96,0.00,OVC,,0.00,WeatherDisplay:10.37,2013-07-10 09:33:00,
2013-07-10 05:38:00,63.2,62.0,30.02,East,79,0.0,0.0,96,0.00,OVC,,0.00,WeatherDisplay:10.37,2013-07-10 09:38:00,
2013-07-10 05:43:00,63.4,62.2,30.02,East,79,0.0,0.0,96,0.00,OVC,,0.00,WeatherDisplay:10.37,2013-07-10 09:43:00,
2013-07-10 05:48:00,63.5,62.3,30.02,East,79,0.0,0.0,96,0.00,OVC,,0.00,WeatherDisplay:10.37,2013-07-10 09:48:00,
2013-07-10 05:53:00,63.2,62.0,30.02,East,79,0.0,0.0,96,0.00,OVC,,0.00,WeatherDisplay:10.37,2013-07-10 09:53:00,
2013-07-10 05:58:00,62.9,61.7,30.02,East,79,0.0,0.0,96,0.00,OVC,,0.00,WeatherDisplay:10.37,2013-07-10 09:58:00,
2013-07-10 06:03:00,62.9,61.7,30.02,East,79,0.0,0.0,96,0.00,OVC,,0.00,WeatherDisplay:10.37,2013-07-10 10:03:00,
2013-07-10 06:08:00,62.9,61.7,30.02,East,79,0.0,0.0,96,0.00,OVC,,0.00,WeatherDisplay:10.37,2013-07-10 10:08:00,
2013-07-10 06:13:00,62.9,61.7,30.02,East,79,0.0,0.0,96,0.00,OVC,,0.00,WeatherDisplay:10.37,2013-07-10 10:13:00,
2013-07-10 06:18:00,63.1,61.9,30.02,East,79,0.0,0.0,96,0.00,OVC,,0.00,WeatherDisplay:10.37,2013-07-10 10:18:00,
2013-07-10 06:23:00,63.1,61.9,30.02,East,79,0.0,0.0,96,0.00,OVC,,0.00,WeatherDisplay:10.37,2013-07-10 10:23:00,
2013-07-10 06:28:00,62.9,61.7,30.02,East,79,0.0,0.0,96,0.00,OVC,,0.00,WeatherDisplay:10.37,2013-07-10 10:28:00,
2013-07-10 06:33:00,62.7,61.5,30.02,East,79,0.0,0.0,96,0.00,OVC,,0.00,WeatherDisplay:10.37,2013-07-10 10:33:00,
2013-07-10 06:38:00,62.9,61.7,30.02,East,79,0.0,0.0,96,0.00,OVC,,0.00,WeatherDisplay:10.37,2013-07-10 10:38:00,
2013-07-10 06:43:00,63.1,63.1,30.02,East,79,0.0,0.0,100,0.00,OVC,,0.00,WeatherDisplay:10.37,2013-07-10 10:43:00,
2013-07-10 06:48:00,63.2,63.2,30.02,ENE,74,0.0,0.0,100,0.00,OVC,,0.00,WeatherDisplay:10.37,2013-07-10 10:48:00,
2013-07-10 06:53:00,63.3,63.3,30.02,ENE,74,0.0,0.0,100,0.00,OVC,,0.00,WeatherDisplay:10.37,2013-07-10 10:53:00,
2013-07-10 06:58:00,63.3,63.3,30.02,ENE,74,0.0,0.0,100,0.00,OVC,,0.00,WeatherDisplay:10.37,2013-07-10 10:58:00,
2013-07-10 07:03:00,63.7,63.7,30.02,ENE,74,0.0,0.0,100,0.00,OVC,,0.00,WeatherDisplay:10.37,2013-07-10 11:03:00,
2013-07-10 07:08:00,64.2,64.2,30.02,ENE,74,0.0,0.0,100,0.00,OVC,,0.00,WeatherDisplay:10.37,2013-07-10 11:08:00,
2013-07-10 07:13:00,63.7,63.7,30.02,ENE,74,0.0,0.0,100,0.00,OVC,,0.00,WeatherDisplay:10.37,2013-07-10 11:13:00,
2013-07-10 07:18:00,63.0,63.0,30.02,ENE,74,0.0,0.0,100,0.00,OVC,,0.00,WeatherDisplay:10.37,2013-07-10 11:18:00,
2013-07-10 07:23:00,63.3,63.3,30.02,ENE,74,0.0,0.0,100,0.00,OVC,,0.00,WeatherDisplay:10.37,2013-07-10 11:23:00,
2013-07-10 07:28:00,62.9,62.9,30.02,ENE,74,0.0,0.0,100,0.00,OVC,,0.00,WeatherDisplay:10.37,2013-07-10 11:28:00,
2013-07-10 07:33:00,62.9,62.9,30.02,ENE,74,0.0,0.0,100,0.00,OVC,,0.00,WeatherDisplay:10.37,2013-07-10 11:33:00,
2013-07-10 07:38:00,63.3,63.3,30.02,ENE,74,0.0,0.0,100,0.00,OVC,,0.00,WeatherDisplay:10.37,2013-07-10 11:38:00,
2013-07-10 07:43:00,62.9,62.9,30.02,ENE,74,0.0,0.0,100,0.00,OVC,,0.00,WeatherDisplay:10.37,2013-07-10 11:43:00,
2013-07-10 07:48:00,62.8,62.8,30.02,ENE,74,0.0,0.0,100,0.00,OVC,,0.00,WeatherDisplay:10.37,2013-07-10 11:48:00,
2013-07-10 07:53:00,62.8,62.8,30.01,ENE,74,0.0,0.0,100,0.00,OVC,,0.00,WeatherDisplay:10.37,2013-07-10 11:53:00,
2013-07-10 07:58:00,63.3,63.3,30.01,ENE,74,0.0,0.0,100,0.00,OVC,,0.00,WeatherDisplay:10.37,2013-07-10 11:58:00,
2013-07-10 08:03:00,63.6,62.4,30.01,ENE,74,0.0,0.0,96,0.00,OVC,,0.00,WeatherDisplay:10.37,2013-07-10 12:03:00,
2013-07-10 08:08:00,64.0,62.8,30.01,ENE,74,0.0,0.0,96,0.00,OVC,,0.00,WeatherDisplay:10.37,2013-07-10 12:08:00,
2013-07-10 08:13:00,63.9,62.7,30.01,ENE,74,0.0,0.0,96,0.00,OVC,,0.00,WeatherDisplay:10.37,2013-07-10 12:13:00,
2013-07-10 08:18:00,63.4,62.2,30.01,ENE,74,0.0,0.0,96,0.00,OVC,,0.00,WeatherDisplay:10.37,2013-07-10 12:18:00,
2013-07-10 08:23:00,63.6,63.6,30.00,ENE,74,0.0,0.0,100,0.00,-RA,,0.00,WeatherDisplay:10.37,2013-07-10 12:23:00,
2013-07-10 08:28:00,63.5,63.5,30.00,ENE,74,0.0,0.0,100,0.00,-RA,,0.00,WeatherDisplay:10.37,2013-07-10 12:28:00,
2013-07-10 08:33:00,63.4,63.4,30.00,ENE,74,0.0,0.0,100,0.00,-RA,,0.00,WeatherDisplay:10.37,2013-07-10 12:33:00,
2013-07-10 08:38:00,64.2,64.2,30.00,ENE,74,0.0,0.0,100,0.00,-RA,,0.00,WeatherDisplay:10.37,2013-07-10 12:38:00,
2013-07-10 08:43:00,63.8,63.8,30.00,ENE,74,0.0,0.0,100,0.00,OVC,,0.00,WeatherDisplay:10.37,2013-07-10 12:43:00,
2013-07-10 08:48:00,63.3,63.3,30.00,ENE,74,0.0,0.0,100,0.00,OVC,,0.00,WeatherDisplay:10.37,2013-07-10 12:48:00,
2013-07-10 08:53:00,63.3,63.3,30.00,ENE,74,0.0,0.0,100,0.00,OVC,,0.00,WeatherDisplay:10.37,2013-07-10 12:53:00,
2013-07-10 08:58:00,63.5,63.5,30.00,ENE,74,0.0,0.0,100,0.00,OVC,,0.00,WeatherDisplay:10.37,2013-07-10 12:58:00,
2013-07-10 09:03:00,64.3,64.3,29.99,ENE,74,0.0,0.0,100,0.00,OVC,,0.00,WeatherDisplay:10.37,2013-07-10 13:03:00,
2013-07-10 09:08:00,63.6,63.6,29.99,ENE,74,0.0,0.0,100,0.00,OVC,,0.00,WeatherDisplay:10.37,2013-07-10 13:08:00,
2013-07-10 09:13:00,63.4,63.4,29.99,ENE,74,0.0,0.0,100,0.00,OVC,,0.00,WeatherDisplay:10.37,2013-07-10 13:13:00,
2013-07-10 09:18:00,63.0,63.0,29.99,ENE,74,0.0,0.0,100,0.00,OVC,,0.00,WeatherDisplay:10.37,2013-07-10 13:18:00,
2013-07-10 09:23:00,63.0,63.0,29.99,ENE,74,0.0,0.0,100,0.00,OVC,,0.00,WeatherDisplay:10.37,2013-07-10 13:23:00,
2013-07-10 09:28:00,63.4,63.4,29.99,ENE,74,0.0,0.0,100,0.00,OVC,,0.00,WeatherDisplay:10.37,2013-07-10 13:28:00,
2013-07-10 09:33:00,63.4,63.4,29.99,ENE,74,0.0,0.0,100,0.00,OVC,,0.00,WeatherDisplay:10.37,2013-07-10 13:33:00,
2013-07-10 09:38:00,63.9,63.9,29.99,ENE,74,0.0,0.0,100,0.00,OVC,,0.00,WeatherDisplay:10.37,2013-07-10 13:38:00,
2013-07-10 09:43:00,64.2,64.2,29.99,ENE,74,0.0,0.0,100,0.00,OVC,,0.00,WeatherDisplay:10.37,2013-07-10 13:43:00,
2013-07-10 09:48:00,63.9,63.9,29.99,ENE,74,0.0,0.0,100,0.00,OVC,,0.00,WeatherDisplay:10.37,2013-07-10 13:48:00,
2013-07-10 09:53:00,64.0,64.0,29.99,ENE,74,0.0,0.0,100,0.00,OVC,,0.00,WeatherDisplay:10.37,2013-07-10 13:53:00,
2013-07-10 09:58:00,64.0,64.0,29.99,ENE,74,0.0,0.0,100,0.00,OVC,,0.00,WeatherDisplay:10.37,2013-07-10 13:58:00,
2013-07-10 10:03:00,63.4,63.4,29.98,ENE,74,0.0,0.0,100,0.00,OVC,,0.00,WeatherDisplay:10.37,2013-07-10 14:03:00,
2013-07-10 10:08:00,63.4,63.4,29.98,ENE,74,0.0,0.0,100,0.00,OVC,,0.00,WeatherDisplay:10.37,2013-07-10 14:08:00,
2013-07-10 10:13:00,63.9,63.9,29.98,ENE,74,0.0,0.0,100,0.00,OVC,,0.00,WeatherDisplay:10.37,2013-07-10 14:13:00,
2013-07-10 10:18:00,63.5,63.5,29.98,ENE,74,0.0,0.0,100,0.00,OVC,,0.00,WeatherDisplay:10.37,2013-07-10 14:18:00,
2013-07-10 10:23:00,64.4,64.4,29.98,ENE,74,0.0,0.0,100,0.00,OVC,,0.00,WeatherDisplay:10.37,2013-07-10 14:23:00,
2013-07-10 10:28:00,64.9,64.9,29.98,ENE,74,0.0,0.0,100,0.00,OVC,,0.00,WeatherDisplay:10.37,2013-07-10 14:28:00,
2013-07-10 10:33:00,64.7,64.7,29.98,ENE,74,0.0,0.0,100,0.00,OVC,,0.00,WeatherDisplay:10.37,2013-07-10 14:33:00,
2013-07-10 10:38:00,64.4,64.4,29.98,ENE,75,0.0,0.0,100,0.00,OVC,,0.00,WeatherDisplay:10.37,2013-07-10 14:38:00,
2013-07-10 10:43:00,64.3,62.2,29.97,ENE,75,0.0,0.0,93,0.00,OVC,,0.00,WeatherDisplay:10.37,2013-07-10 14:43:00,
2013-07-10 10:48:00,64.0,61.9,29.97,ENE,75,0.0,0.0,93,0.00,OVC,,0.00,WeatherDisplay:10.37,2013-07-10 14:48:00,
2013-07-10 10:53:00,64.5,62.4,29.97,ENE,75,0.0,0.0,93,0.00,OVC,,0.00,WeatherDisplay:10.37,2013-07-10 14:53:00,
2013-07-10 10:58:00,65.0,62.9,29.97,ENE,75,0.0,0.0,93,0.00,OVC,,0.00,WeatherDisplay:10.37,2013-07-10 14:58:00,
2013-07-10 11:03:00,64.3,63.1,29.97,ENE,77,0.0,0.0,96,0.00,OVC,,0.00,WeatherDisplay:10.37,2013-07-10 15:03:00,
2013-07-10 11:08:00,64.5,63.3,29.97,ENE,77,0.0,0.0,96,0.00,OVC,,0.00,WeatherDisplay:10.37,2013-07-10 15:08:00,
2013-07-10 11:13:00,64.4,63.2,29.97,ENE,77,0.0,0.0,96,0.00,OVC,,0.00,WeatherDisplay:10.37,2013-07-10 15:13:00,
2013-07-10 11:18:00,64.8,63.6,29.97,North,0,0.0,0.0,96,0.00,OVC,,0.00,WeatherDisplay:10.37,2013-07-10 15:18:00,
2013-07-10 11:23:00,65.1,63.9,29.97,North,0,0.0,0.0,96,0.00,OVC,,0.00,WeatherDisplay:10.37,2013-07-10 15:23:00,
2013-07-10 11:28:00,65.3,64.1,29.97,North,0,0.0,0.0,96,0.00,OVC,,0.00,WeatherDisplay:10.37,2013-07-10 15:28:00,
2013-07-10 11:33:00,65.3,63.2,29.97,North,0,0.0,0.0,93,0.00,OVC,,0.00,WeatherDisplay:10.37,2013-07-10 15:33:00,
2013-07-10 11:38:00,65.6,63.5,29.97,North,0,0.0,0.0,93,0.00,OVC,,0.00,WeatherDisplay:10.37,2013-07-10 15:38:00,
2013-07-10 11:43:00,65.7,63.6,29.97,North,0,0.0,0.0,93,0.00,OVC,,0.00,WeatherDisplay:10.37,2013-07-10 15:43:00,
2013-07-10 11:48:00,66.2,64.1,29.97,North,0,0.0,0.0,93,0.00,OVC,,0.00,WeatherDisplay:10.37,2013-07-10 15:48:00,
2013-07-10 11:53:00,66.0,63.9,29.97,North,0,1.1,1.1,93,0.00,OVC,,0.00,WeatherDisplay:10.37,2013-07-10 15:53:00,
2013-07-10 11:58:00,65.7,63.6,29.97,North,0,0.0,0.0,93,0.00,OVC,,0.00,WeatherDisplay:10.37,2013-07-10 15:58:00,
2013-07-10 12:03:00,66.2,64.1,29.97,North,0,1.1,0.0,93,0.00,OVC,,0.00,WeatherDisplay:10.37,2013-07-10 16:03:00,
2013-07-10 12:08:00,66.4,64.3,29.97,North,0,0.0,0.0,93,0.00,OVC,,0.00,WeatherDisplay:10.37,2013-07-10 16:08:00,
2013-07-10 12:13:00,66.7,65.5,29.95,North,0,0.0,0.0,96,0.00,OVC,,0.00,WeatherDisplay:10.37,2013-07-10 16:13:00,
2013-07-10 12:18:00,66.6,65.4,29.95,North,0,0.0,0.0,96,0.00,OVC,,0.00,WeatherDisplay:10.37,2013-07-10 16:18:00,
2013-07-10 12:23:00,66.6,65.4,29.95,North,0,0.0,0.0,96,0.00,OVC,,0.00,WeatherDisplay:10.37,2013-07-10 16:23:00,
2013-07-10 12:28:00,67.0,65.8,29.95,North,0,0.0,0.0,96,0.00,OVC,,0.00,WeatherDisplay:10.37,2013-07-10 16:28:00,
2013-07-10 12:33:00,66.6,65.4,29.95,North,0,0.0,0.0,96,0.00,OVC,,0.00,WeatherDisplay:10.37,2013-07-10 16:33:00,
2013-07-10 12:38:00,66.9,65.7,29.95,North,0,1.1,0.0,96,0.00,OVC,,0.00,WeatherDisplay:10.37,2013-07-10 16:38:00,
2013-07-10 12:43:00,67.0,65.8,29.95,North,0,0.0,0.0,96,0.00,OVC,,0.00,WeatherDisplay:10.37,2013-07-10 16:43:00,
2013-07-10 12:48:00,67.3,66.1,29.95,North,0,0.0,0.0,96,0.00,OVC,,0.00,WeatherDisplay:10.37,2013-07-10 16:48:00,
2013-07-10 12:53:00,67.3,66.1,29.95,North,0,0.0,0.0,96,0.00,OVC,,0.00,WeatherDisplay:10.37,2013-07-10 16:53:00,
2013-07-10 12:58:00,67.7,66.5,29.95,North,0,0.0,0.0,96,0.00,OVC,,0.00,WeatherDisplay:10.37,2013-07-10 16:58:00,
2013-07-10 13:03:00,68.1,65.1,29.93,North,0,0.0,0.0,90,0.00,OVC,,0.00,WeatherDisplay:10.37,2013-07-10 17:03:00,
2013-07-10 13:08:00,68.5,65.4,29.93,North,0,0.0,0.0,90,0.00,OVC,,0.00,WeatherDisplay:10.37,2013-07-10 17:08:00,
2013-07-10 13:14:00,68.0,65.0,29.93,North,0,0.0,0.0,90,0.00,OVC,,0.00,WeatherDisplay:10.37,2013-07-10 17:14:00,
2013-07-10 13:19:00,67.8,64.8,29.93,North,0,0.0,0.0,90,0.00,OVC,,0.00,WeatherDisplay:10.37,2013-07-10 17:19:00,
2013-07-10 13:24:00,68.0,65.0,29.93,North,0,0.0,0.0,90,0.00,OVC,,0.00,WeatherDisplay:10.37,2013-07-10 17:24:00,
2013-07-10 13:29:00,68.4,65.4,29.93,ENE,68,1.1,0.0,90,0.00,OVC,,0.00,WeatherDisplay:10.37,2013-07-10 17:29:00,
2013-07-10 13:34:00,69.9,66.8,29.93,East,79,0.0,0.0,90,0.00,OVC,,0.00,WeatherDisplay:10.37,2013-07-10 17:34:00,
2013-07-10 13:39:00,70.1,67.0,29.93,East,79,1.1,0.0,90,0.00,OVC,,0.00,WeatherDisplay:10.37,2013-07-10 17:39:00,
2013-07-10 13:44:00,69.6,66.5,29.93,East,82,0.0,0.0,90,0.00,OVC,,0.00,WeatherDisplay:10.37,2013-07-10 17:44:00,
2013-07-10 13:49:00,70.5,67.4,29.93,East,82,0.0,0.0,90,0.00,OVC,,0.00,WeatherDisplay:10.37,2013-07-10 17:49:00,
2013-07-10 13:54:00,71.1,68.0,29.93,East,82,1.1,0.0,90,0.00,OVC,,0.00,WeatherDisplay:10.37,2013-07-10 17:54:00,
2013-07-10 13:59:00,70.1,67.0,29.93,ENE,78,1.1,1.1,90,0.00,OVC,,0.00,WeatherDisplay:10.37,2013-07-10 17:59:00,
2013-07-10 14:04:00,70.2,66.1,29.89,ENE,63,0.0,0.0,87,0.00,OVC,,0.00,WeatherDisplay:10.37,2013-07-10 18:04:00,
2013-07-10 14:09:00,70.3,66.2,29.89,ENE,63,1.1,0.0,87,0.00,OVC,,0.00,WeatherDisplay:10.37,2013-07-10 18:09:00,
2013-07-10 14:14:00,70.1,66.0,29.89,ENE,71,0.0,0.0,87,0.00,OVC,,0.00,WeatherDisplay:10.37,2013-07-10 18:14:00,
2013-07-10 14:19:00,70.5,66.4,29.89,ENE,71,0.0,0.0,87,0.00,OVC,,0.00,WeatherDisplay:10.37,2013-07-10 18:19:00,
2013-07-10 14:24:00,71.1,67.4,29.88,ENE,71,1.1,1.1,88,0.00,OVC,,0.00,WeatherDisplay:10.37,2013-07-10 18:24:00,
2013-07-10 14:29:00,70.7,67.0,29.88,ENE,74,1.1,0.0,88,0.00,OVC,,0.00,WeatherDisplay:10.37,2013-07-10 18:29:00,
2013-07-10 14:34:00,70.5,66.8,29.88,ENE,74,0.0,0.0,88,0.00,OVC,,0.00,WeatherDisplay:10.37,2013-07-10 18:34:00,
2013-07-10 14:39:00,70.6,66.9,29.88,ENE,74,0.0,0.0,88,0.00,OVC,,0.00,WeatherDisplay:10.37,2013-07-10 18:39:00,
2013-07-10 14:44:00,71.3,67.6,29.88,ENE,74,1.0,0.0,88,0.00,OVC,,0.00,WeatherDisplay:10.37,2013-07-10 18:44:00,
2013-07-10 14:49:00,71.9,68.2,29.88,ENE,74,0.0,0.0,88,0.00,OVC,,0.00,WeatherDisplay:10.37,2013-07-10 18:49:00,
2013-07-10 14:54:00,72.5,68.7,29.88,ENE,74,0.0,0.0,88,0.00,OVC,,0.00,WeatherDisplay:10.37,2013-07-10 18:54:00,
2013-07-10 14:59:00,72.8,69.0,29.88,ENE,74,0.0,0.0,88,0.00,OVC,,0.00,WeatherDisplay:10.37,2013-07-10 18:59:00,
2013-07-10 15:04:00,72.7,67.6,29.86,ENE,74,0.0,0.0,84,0.00,OVC,,0.00,WeatherDisplay:10.37,2013-07-10 19:04:00,
2013-07-10 15:09:00,72.6,67.5,29.86,ENE,74,0.0,0.0,84,0.00,OVC,,0.00,WeatherDisplay:10.37,2013-07-10 19:09:00,
2013-07-10 15:14:00,72.5,67.4,29.86,ENE,68,1.1,1.1,84,0.00,OVC,,0.00,WeatherDisplay:10.37,2013-07-10 19:14:00,
2013-07-10 15:19:00,72.3,67.2,29.86,ENE,69,1.1,0.0,84,0.00,OVC,,0.00,WeatherDisplay:10.37,2013-07-10 19:19:00,
2013-07-10 15:24:00,71.9,66.8,29.86,ENE,69,1.1,1.1,84,0.00,OVC,,0.00,WeatherDisplay:10.37,2013-07-10 19:24:00,
2013-07-10 15:29:00,71.5,66.4,29.86,ENE,68,1.1,1.1,84,0.00,OVC,,0.00,WeatherDisplay:10.37,2013-07-10 19:29:00,
2013-07-10 15:34:00,71.2,66.1,29.86,ENE,68,0.0,0.0,84,0.00,OVC,,0.00,WeatherDisplay:10.37,2013-07-10 19:34:00,
2013-07-10 15:39:00,71.3,66.2,29.86,ENE,68,0.0,0.0,84,0.00,OVC,,0.00,WeatherDisplay:10.37,2013-07-10 19:39:00,
2013-07-10 15:44:00,70.9,65.5,29.85,ENE,68,1.1,1.1,83,0.00,OVC,,0.00,WeatherDisplay:10.37,2013-07-10 19:44:00,
2013-07-10 15:49:00,71.1,65.7,29.85,ENE,68,1.1,0.0,83,0.00,OVC,,0.00,WeatherDisplay:10.37,2013-07-10 19:49:00,
2013-07-10 15:54:00,71.0,65.6,29.85,ENE,68,0.0,0.0,83,0.00,OVC,,0.00,WeatherDisplay:10.37,2013-07-10 19:54:00,
2013-07-10 15:59:00,71.1,65.7,29.85,ENE,68,0.0,0.0,83,0.00,OVC,,0.00,WeatherDisplay:10.37,2013-07-10 19:59:00,
2013-07-10 16:04:00,71.0,65.9,29.83,ENE,68,0.0,0.0,84,0.00,OVC,,0.00,WeatherDisplay:10.37,2013-07-10 20:04:00,
2013-07-10 16:09:00,71.0,65.9,29.83,ENE,68,0.0,0.0,84,0.00,OVC,,0.00,WeatherDisplay:10.37,2013-07-10 20:09:00,
2013-07-10 16:14:00,70.8,65.7,29.83,ENE,68,0.0,0.0,84,0.01,RA,,0.01,WeatherDisplay:10.37,2013-07-10 20:14:00,
2013-07-10 16:19:00,70.6,65.5,29.83,ENE,68,0.0,0.0,84,0.01,OVC,,0.01,WeatherDisplay:10.37,2013-07-10 20:19:00,
2013-07-10 16:24:00,70.5,65.4,29.83,ENE,68,1.1,0.0,84,0.01,OVC,,0.01,WeatherDisplay:10.37,2013-07-10 20:24:00,
2013-07-10 16:29:00,70.3,65.2,29.83,ENE,68,0.0,0.0,84,0.02,RA,,0.02,WeatherDisplay:10.37,2013-07-10 20:29:00,
2013-07-10 16:34:00,70.0,64.9,29.83,ENE,68,1.1,0.0,84,0.03,RA,,0.04,WeatherDisplay:10.37,2013-07-10 20:34:00,
2013-07-10 16:39:00,69.3,64.3,29.83,ENE,68,1.1,0.0,84,0.04,OVC,,0.04,WeatherDisplay:10.37,2013-07-10 20:39:00,
2013-07-10 16:44:00,68.7,65.0,29.82,ENE,68,0.0,0.0,88,0.04,-RA,,0.04,WeatherDisplay:10.37,2013-07-10 20:44:00,
2013-07-10 16:49:00,68.5,64.8,29.82,ENE,68,0.0,0.0,88,0.04,-RA,,0.04,WeatherDisplay:10.37,2013-07-10 20:49:00,
2013-07-10 16:54:00,68.9,65.2,29.82,ENE,68,4.6,4.6,88,0.06,-RA,,0.07,WeatherDisplay:10.37,2013-07-10 20:54:00,
2013-07-10 16:59:00,69.2,65.5,29.82,ENE,68,2.3,2.3,88,0.10,-RA,,0.10,WeatherDisplay:10.37,2013-07-10 20:59:00,
2013-07-10 17:04:00,69.1,67.3,29.82,ENE,68,0.0,0.0,94,0.11,-RA,,0.11,WeatherDisplay:10.37,2013-07-10 21:04:00,
2013-07-10 17:09:00,69.2,67.4,29.82,ENE,68,0.0,0.0,94,0.11,-RA,,0.11,WeatherDisplay:10.37,2013-07-10 21:09:00,
2013-07-10 17:14:00,68.4,66.6,29.82,ENE,68,0.0,0.0,94,0.13,-RA,,0.14,WeatherDisplay:10.37,2013-07-10 21:14:00,
2013-07-10 17:19:00,68.9,67.1,29.82,ENE,68,0.0,0.0,94,0.14,-RA,,0.15,WeatherDisplay:10.37,2013-07-10 21:19:00,
2013-07-10 17:24:00,68.2,68.2,29.81,ENE,68,0.0,0.0,100,0.27,RA,,0.29,WeatherDisplay:10.37,2013-07-10 21:24:00,
2013-07-10 17:29:00,69.0,69.0,29.81,ENE,68,0.0,0.0,100,0.30,RA,,0.32,WeatherDisplay:10.37,2013-07-10 21:29:00,
2013-07-10 17:34:00,69.4,69.4,29.81,ENE,68,0.0,0.0,100,0.35,RA,,0.38,WeatherDisplay:10.37,2013-07-10 21:34:00,
2013-07-10 17:39:00,69.1,69.1,29.81,ENE,67,2.3,2.3,100,0.38,RA,,0.42,WeatherDisplay:10.37,2013-07-10 21:39:00,
2013-07-10 17:44:00,69.0,67.2,29.79,East,93,3.5,3.5,94,0.38,OVC,,0.42,WeatherDisplay:10.37,2013-07-10 21:44:00,
2013-07-10 17:49:00,69.3,67.5,29.79,SE,131,3.5,3.5,94,0.39,RA,,0.43,WeatherDisplay:10.37,2013-07-10 21:49:00,
2013-07-10 17:54:00,69.3,69.3,29.80,SE,131,0.0,0.0,100,0.37,-RA,,0.43,WeatherDisplay:10.37,2013-07-10 21:54:00,
2013-07-10 17:59:00,69.1,69.1,29.80,SE,131,0.0,0.0,100,0.33,-RA,,0.43,WeatherDisplay:10.37,2013-07-10 21:59:00,
2013-07-10 18:04:00,69.0,69.0,29.80,SE,131,0.0,0.0,100,0.32,-RA,,0.43,WeatherDisplay:10.37,2013-07-10 22:04:00,
2013-07-10 18:09:00,69.3,69.3,29.80,SE,131,0.0,0.0,100,0.32,-RA,,0.43,WeatherDisplay:10.37,2013-07-10 22:09:00,
2013-07-10 18:14:00,70.1,69.2,29.80,SE,131,0.0,0.0,97,0.33,-RA,,0.44,WeatherDisplay:10.37,2013-07-10 22:14:00,
2013-07-10 18:19:00,70.3,69.4,29.80,SE,131,0.0,0.0,97,0.30,-RA,,0.44,WeatherDisplay:10.37,2013-07-10 22:19:00,
2013-07-10 18:24:00,69.9,69.0,29.80,SE,131,0.0,0.0,97,0.28,-RA,,0.44,WeatherDisplay:10.37,2013-07-10 22:24:00,
2013-07-10 18:29:00,69.8,68.9,29.80,SE,131,0.0,0.0,97,0.15,-RA,,0.44,WeatherDisplay:10.37,2013-07-10 22:29:00,
2013-07-10 18:34:00,69.6,69.6,29.80,SE,131,0.0,0.0,100,0.11,OVC,,0.44,WeatherDisplay:10.37,2013-07-10 22:34:00,
2013-07-10 18:39:00,69.7,69.7,29.80,SE,131,0.0,0.0,100,0.05,OVC,,0.44,WeatherDisplay:10.37,2013-07-10 22:39:00,
2013-07-10 18:44:00,69.8,69.8,29.80,SE,131,0.0,0.0,100,0.02,OVC,,0.44,WeatherDisplay:10.37,2013-07-10 22:44:00,
2013-07-10 18:49:00,70.7,70.7,29.80,SE,131,0.0,0.0,100,0.02,OVC,,0.44,WeatherDisplay:10.37,2013-07-10 22:49:00,
2013-07-10 18:54:00,70.6,70.6,29.80,SE,131,0.0,0.0,100,0.01,-RA,,0.44,WeatherDisplay:10.37,2013-07-10 22:54:00,
2013-07-10 18:59:00,70.3,70.3,29.80,SE,131,0.0,0.0,100,0.01,-RA,,0.44,WeatherDisplay:10.37,2013-07-10 22:59:00,
2013-07-10 19:04:00,70.0,70.0,29.80,SE,131,0.0,0.0,100,0.01,-RA,,0.44,WeatherDisplay:10.37,2013-07-10 23:04:00,
2013-07-10 19:09:00,70.1,70.1,29.80,SE,131,0.0,0.0,100,0.01,-RA,,0.44,WeatherDisplay:10.37,2013-07-10 23:09:00,
2013-07-10 19:14:00,69.8,68.9,29.80,SE,131,0.0,0.0,97,0.00,-RA,,0.44,WeatherDisplay:10.37,2013-07-10 23:14:00,
2013-07-10 19:19:00,69.8,68.9,29.80,SE,131,0.0,0.0,97,0.00,-RA,,0.44,WeatherDisplay:10.37,2013-07-10 23:19:00,
2013-07-10 19:24:00,69.4,68.5,29.80,SE,131,0.0,0.0,97,0.00,-RA,,0.44,WeatherDisplay:10.37,2013-07-10 23:24:00,
2013-07-10 19:29:00,70.0,69.1,29.80,SE,131,0.0,0.0,97,0.00,-RA,,0.44,WeatherDisplay:10.37,2013-07-10 23:29:00,
2013-07-10 19:34:00,69.2,68.3,29.80,SE,131,0.0,0.0,97,0.00,-RA,,0.44,WeatherDisplay:10.37,2013-07-10 23:34:00,
2013-07-10 19:39:00,69.1,68.2,29.80,SE,131,0.0,0.0,97,0.00,-RA,,0.44,WeatherDisplay:10.37,2013-07-10 23:39:00,
2013-07-10 19:44:00,69.9,69.0,29.80,SE,131,1.0,1.0,97,0.00,-RA,,0.44,WeatherDisplay:10.37,2013-07-10 23:44:00,
2013-07-10 19:49:00,70.1,69.2,29.80,SE,131,1.1,1.1,97,0.00,-RA,,0.44,WeatherDisplay:10.37,2013-07-10 23:49:00,
2013-07-10 19:54:00,69.9,69.0,29.80,SE,131,0.0,0.0,97,0.00,-RA,,0.44,WeatherDisplay:10.37,2013-07-10 23:54:00,
2013-07-10 19:59:00,68.6,67.7,29.80,SE,131,1.1,1.1,97,0.00,-RA,,0.44,WeatherDisplay:10.37,2013-07-10 23:59:00,
2013-07-10 20:04:00,68.7,67.5,29.79,SE,131,0.0,0.0,96,0.00,SCT,,0.44,WeatherDisplay:10.37,2013-07-11 00:04:00,
2013-07-10 20:09:00,68.6,67.4,29.79,SE,131,0.0,0.0,96,0.00,SCT,,0.44,WeatherDisplay:10.37,2013-07-11 00:09:00,
2013-07-10 20:14:00,69.2,68.0,29.79,SE,131,0.0,0.0,96,0.00,SCT,,0.44,WeatherDisplay:10.37,2013-07-11 00:14:00,
2013-07-10 20:19:00,68.9,67.7,29.79,SE,131,0.0,0.0,96,0.00,SCT,,0.44,WeatherDisplay:10.37,2013-07-11 00:19:00,
2013-07-10 20:24:00,68.6,67.4,29.79,SE,131,0.0,0.0,96,0.00,SCT,,0.44,WeatherDisplay:10.37,2013-07-11 00:24:00,
2013-07-10 20:29:00,69.8,68.6,29.79,SE,131,0.0,0.0,96,0.00,SCT,,0.44,WeatherDisplay:10.37,2013-07-11 00:29:00,
2013-07-10 20:34:00,68.5,66.7,29.80,SE,131,0.0,0.0,94,0.00,BKN,,0.44,WeatherDisplay:10.37,2013-07-11 00:34:00,
2013-07-10 20:39:00,68.3,66.5,29.80,SE,131,0.0,0.0,94,0.00,BKN,,0.44,WeatherDisplay:10.37,2013-07-11 00:39:00,
2013-07-10 20:44:00,68.1,66.3,29.80,SE,131,0.0,0.0,94,0.00,BKN,,0.44,WeatherDisplay:10.37,2013-07-11 00:44:00,
2013-07-10 20:49:00,68.1,66.3,29.80,SE,131,0.0,0.0,94,0.00,BKN,,0.44,WeatherDisplay:10.37,2013-07-11 00:49:00,
2013-07-10 20:54:00,67.5,65.7,29.80,SE,131,0.0,0.0,94,0.00,BKN,,0.44,WeatherDisplay:10.37,2013-07-11 00:54:00,
2013-07-10 20:59:00,67.7,65.9,29.80,SE,131,0.0,0.0,94,0.00,BKN,,0.44,WeatherDisplay:10.37,2013-07-11 00:59:00,
2013-07-10 21:04:00,68.8,67.6,29.80,SE,131,0.0,0.0,96,0.00,BKN,,0.44,WeatherDisplay:10.37,2013-07-11 01:04:00,
2013-07-10 21:09:00,68.2,67.0,29.80,SE,131,0.0,0.0,96,0.00,BKN,,0.44,WeatherDisplay:10.37,2013-07-11 01:09:00,
2013-07-10 21:14:00,67.8,67.8,29.80,SE,131,0.0,0.0,100,0.00,SCT,,0.44,WeatherDisplay:10.37,2013-07-11 01:14:00,
2013-07-10 21:19:00,69.4,69.4,29.80,SE,131,0.0,0.0,100,0.00,SCT,,0.44,WeatherDisplay:10.37,2013-07-11 01:19:00,
2013-07-10 21:24:00,68.1,68.1,29.80,SE,131,0.0,0.0,100,0.00,SCT,,0.44,WeatherDisplay:10.37,2013-07-11 01:24:00,
2013-07-10 21:29:00,69.1,69.1,29.80,SE,131,0.0,0.0,100,0.00,SCT,,0.44,WeatherDisplay:10.37,2013-07-11 01:29:00,
2013-07-10 21:34:00,68.6,68.6,29.79,SE,131,0.0,0.0,100,0.00,BKN,,0.44,WeatherDisplay:10.37,2013-07-11 01:34:00,
2013-07-10 21:39:00,68.9,68.9,29.79,SE,131,0.0,0.0,100,0.00,BKN,,0.44,WeatherDisplay:10.37,2013-07-11 01:39:00,
2013-07-10 21:44:00,69.3,69.3,29.79,SE,131,0.0,0.0,100,0.00,BKN,,0.44,WeatherDisplay:10.37,2013-07-11 01:44:00,
2013-07-10 21:49:00,68.0,68.0,29.79,SE,131,0.0,0.0,100,0.00,BKN,,0.44,WeatherDisplay:10.37,2013-07-11 01:49:00,
2013-07-10 21:54:00,68.0,68.0,29.79,SE,131,0.0,0.0,100,0.00,BKN,,0.44,WeatherDisplay:10.37,2013-07-11 01:54:00,
2013-07-10 21:59:00,68.5,68.5,29.79,SE,131,0.0,0.0,100,0.00,BKN,,0.44,WeatherDisplay:10.37,2013-07-11 01:59:00,
2013-07-10 22:04:00,68.0,68.0,29.81,SE,131,0.0,0.0,100,0.00,FEW,,0.44,WeatherDisplay:10.37,2013-07-11 02:04:00,
2013-07-10 22:09:00,67.9,67.9,29.81,SE,131,0.0,0.0,100,0.00,FEW,,0.44,WeatherDisplay:10.37,2013-07-11 02:09:00,
2013-07-10 22:14:00,68.8,68.8,29.81,SE,131,0.0,0.0,100,0.00,FEW,,0.44,WeatherDisplay:10.37,2013-07-11 02:14:00,
2013-07-10 22:19:00,69.5,69.5,29.81,SE,131,0.0,0.0,100,0.00,FEW,,0.44,WeatherDisplay:10.37,2013-07-11 02:19:00,
2013-07-10 22:24:00,67.7,67.7,29.81,SE,131,0.0,0.0,100,0.00,FEW,,0.44,WeatherDisplay:10.37,2013-07-11 02:24:00,
2013-07-10 22:29:00,67.8,67.8,29.81,SE,131,0.0,0.0,100,0.00,FEW,,0.44,WeatherDisplay:10.37,2013-07-11 02:29:00,
2013-07-10 22:34:00,67.8,67.8,29.81,SE,131,0.0,0.0,100,0.00,FEW,,0.44,WeatherDisplay:10.37,2013-07-11 02:34:00,
2013-07-10 22:39:00,67.8,67.8,29.81,SE,131,0.0,0.0,100,0.00,FEW,,0.44,WeatherDisplay:10.37,2013-07-11 02:39:00,
2013-07-10 22:44:00,67.1,67.1,29.80,SE,131,0.0,0.0,100,0.00,SCT,,0.44,WeatherDisplay:10.37,2013-07-11 02:44:00,
2013-07-10 22:49:00,67.1,67.1,29.80,SE,131,0.0,0.0,100,0.00,SCT,,0.44,WeatherDisplay:10.37,2013-07-11 02:49:00,
2013-07-10 22:54:00,67.0,67.0,29.80,SE,131,0.0,0.0,100,0.00,SCT,,0.44,WeatherDisplay:10.37,2013-07-11 02:54:00,
2013-07-10 22:59:00,66.8,66.8,29.80,SE,131,0.0,0.0,100,0.00,SCT,,0.44,WeatherDisplay:10.37,2013-07-11 02:59:00,
2013-07-10 23:04:00,67.1,67.1,29.80,SE,131,0.0,0.0,100,0.00,SCT,,0.44,WeatherDisplay:10.37,2013-07-11 03:04:00,
2013-07-10 23:09:00,67.4,67.4,29.80,SE,131,0.0,0.0,100,0.00,SCT,,0.44,WeatherDisplay:10.37,2013-07-11 03:09:00,
2013-07-10 23:14:00,67.1,67.1,29.79,SE,131,0.0,0.0,100,0.00,CLR,,0.44,WeatherDisplay:10.37,2013-07-11 03:14:00,
2013-07-10 23:19:00,66.8,66.8,29.79,SE,131,0.0,0.0,100,0.00,CLR,,0.44,WeatherDisplay:10.37,2013-07-11 03:19:00,
2013-07-10 23:24:00,66.8,66.8,29.79,SE,131,0.0,0.0,100,0.00,CLR,,0.44,WeatherDisplay:10.37,2013-07-11 03:24:00,
2013-07-10 23:29:00,66.7,66.7,29.79,SE,131,0.0,0.0,100,0.00,CLR,,0.44,WeatherDisplay:10.37,2013-07-11 03:29:00,
2013-07-10 23:34:00,66.8,66.8,29.79,SE,131,0.0,0.0,100,0.00,CLR,,0.44,WeatherDisplay:10.37,2013-07-11 03:34:00,
2013-07-10 23:39:00,66.7,66.7,29.79,SE,131,0.0,0.0,100,0.00,CLR,,0.44,WeatherDisplay:10.37,2013-07-11 03:39:00,
2013-07-10 23:44:00,66.8,66.8,29.79,SE,131,0.0,0.0,100,0.00,CLR,,0.44,WeatherDisplay:10.37,2013-07-11 03:44:00,
2013-07-10 23:49:00,67.1,67.1,29.79,SE,131,0.0,0.0,100,0.00,CLR,,0.44,WeatherDisplay:10.37,2013-07-11 03:49:00,
2013-07-10 23:54:00,66.7,66.7,29.79,SE,131,0.0,0.0,100,0.00,CLR,,0.44,WeatherDisplay:10.37,2013-07-11 03:54:00,
2013-07-10 23:59:00,66.8,66.8,29.79,SE,131,0.0,0.0,100,0.00,CLR,,0.44,WeatherDisplay:10.37,2013-07-11 03:59:00,